KCLW/CLW METAR and TAF weather

Enter ICAO airport designator
Station Type Date Time Source
KCLW METAR 2019/04/25 16:15 UTC NOAA

KCLW 251615Z AUTO 19008KT 160V220 10SM SCT036 25/17 A3001 RMK AO2


Station Type Date Time Source
KCLW Decoded METAR 2019/04/25 16:15 UTC NOAA

Station name not available
Apr 25, 2019 - 12:15 PM EDT / 2019.04.25 1615 UTC
Wind: from the S (190 degrees) at 9 MPH (8 KT) (direction variable):0
Visibility: 10 mile(s):0
Sky conditions: partly cloudy
Temperature: 77 F (25 C)
Dew Point: 62 F (17 C)
Relative Humidity: 61%
Pressure (altimeter): 30.01 in. Hg (1016 hPa)
ob: KCLW 251615Z AUTO 19008KT 160V220 10SM SCT036 25/17 A3001 RMK AO2
cycle: 16

Station Type Date Time Source
KCLW TAF UTC NOAA

Error!

Example: see airport list